sensor_id;sensor_type;location;lat;lon;timestamp;P1;durP1;ratioP1;P2;durP2;ratioP2
76176;SDS011;64938;47.696;8.066;2023-07-20T00:00:16;1.93;;;1.83;;
76176;SDS011;64938;47.696;8.066;2023-07-20T00:02:42;2.47;;;2.17;;
76176;SDS011;64938;47.696;8.066;2023-07-20T00:05:08;2.53;;;1.83;;
76176;SDS011;64938;47.696;8.066;2023-07-20T00:07:36;3.10;;;2.37;;
76176;SDS011;64938;47.696;8.066;2023-07-20T00:10:03;2.73;;;2.23;;
76176;SDS011;64938;47.696;8.066;2023-07-20T00:12:29;1.80;;;1.70;;
76176;SDS011;64938;47.696;8.066;2023-07-20T00:14:55;5.70;;;2.00;;
76176;SDS011;64938;47.696;8.066;2023-07-20T00:17:20;2.40;;;1.87;;
76176;SDS011;64938;47.696;8.066;2023-07-20T00:19:46;2.00;;;1.90;;
76176;SDS011;64938;47.696;8.066;2023-07-20T00:22:12;2.50;;;2.13;;
76176;SDS011;64938;47.696;8.066;2023-07-20T00:24:38;2.83;;;1.70;;
76176;SDS011;64938;47.696;8.066;2023-07-20T00:27:04;3.33;;;2.17;;
76176;SDS011;64938;47.696;8.066;2023-07-20T00:29:29;3.53;;;2.30;;
76176;SDS011;64938;47.696;8.066;2023-07-20T00:31:55;2.10;;;2.00;;
76176;SDS011;64938;47.696;8.066;2023-07-20T00:34:21;3.17;;;1.80;;
76176;SDS011;64938;47.696;8.066;2023-07-20T00:36:47;2.20;;;2.00;;
76176;SDS011;64938;47.696;8.066;2023-07-20T00:39:14;2.30;;;2.10;;
76176;SDS011;64938;47.696;8.066;2023-07-20T00:41:40;2.43;;;1.93;;
76176;SDS011;64938;47.696;8.066;2023-07-20T00:44:08;2.20;;;1.70;;
76176;SDS011;64938;47.696;8.066;2023-07-20T00:46:34;2.43;;;1.90;;
76176;SDS011;64938;47.696;8.066;2023-07-20T00:49:00;2.47;;;2.03;;
76176;SDS011;64938;47.696;8.066;2023-07-20T00:51:26;3.03;;;2.00;;
76176;SDS011;64938;47.696;8.066;2023-07-20T00:53:52;3.30;;;2.27;;
76176;SDS011;64938;47.696;8.066;2023-07-20T00:56:18;2.43;;;2.07;;
76176;SDS011;64938;47.696;8.066;2023-07-20T00:58:44;2.93;;;2.00;;
76176;SDS011;64938;47.696;8.066;2023-07-20T01:01:10;2.90;;;2.37;;
76176;SDS011;64938;47.696;8.066;2023-07-20T01:03:36;3.77;;;2.13;;
76176;SDS011;64938;47.696;8.066;2023-07-20T01:08:47;4.03;;;2.43;;
76176;SDS011;64938;47.696;8.066;2023-07-20T01:11:30;2.87;;;2.20;;
76176;SDS011;64938;47.696;8.066;2023-07-20T01:13:58;2.30;;;2.10;;
76176;SDS011;64938;47.696;8.066;2023-07-20T01:16:24;2.73;;;2.53;;
76176;SDS011;64938;47.696;8.066;2023-07-20T01:18:50;2.70;;;2.50;;
76176;SDS011;64938;47.696;8.066;2023-07-20T01:21:21;6.10;;;2.40;;
76176;SDS011;64938;47.696;8.066;2023-07-20T01:27:06;5.13;;;2.50;;
76176;SDS011;64938;47.696;8.066;2023-07-20T01:32:34;3.80;;;2.30;;
76176;SDS011;64938;47.696;8.066;2023-07-20T01:35:00;3.60;;;2.33;;
76176;SDS011;64938;47.696;8.066;2023-07-20T01:37:28;3.43;;;2.23;;
76176;SDS011;64938;47.696;8.066;2023-07-20T01:39:55;3.60;;;2.23;;
76176;SDS011;64938;47.696;8.066;2023-07-20T01:42:21;4.13;;;2.80;;
76176;SDS011;64938;47.696;8.066;2023-07-20T01:44:50;4.30;;;2.17;;
76176;SDS011;64938;47.696;8.066;2023-07-20T01:47:17;4.10;;;2.80;;
76176;SDS011;64938;47.696;8.066;2023-07-20T01:49:43;3.00;;;2.50;;
76176;SDS011;64938;47.696;8.066;2023-07-20T01:52:09;3.00;;;2.70;;
76176;SDS011;64938;47.696;8.066;2023-07-20T01:54:35;3.90;;;2.50;;
76176;SDS011;64938;47.696;8.066;2023-07-20T01:57:00;3.10;;;2.60;;
76176;SDS011;64938;47.696;8.066;2023-07-20T01:59:26;2.60;;;2.27;;
76176;SDS011;64938;47.696;8.066;2023-07-20T02:01:54;2.70;;;2.10;;
76176;SDS011;64938;47.696;8.066;2023-07-20T02:04:20;3.03;;;2.83;;
76176;SDS011;64938;47.696;8.066;2023-07-20T02:06:45;2.70;;;2.30;;
76176;SDS011;64938;47.696;8.066;2023-07-20T02:09:12;5.00;;;2.67;;
76176;SDS011;64938;47.696;8.066;2023-07-20T02:11:40;2.77;;;2.23;;
76176;SDS011;64938;47.696;8.066;2023-07-20T02:14:06;2.90;;;2.60;;
76176;SDS011;64938;47.696;8.066;2023-07-20T02:16:32;3.00;;;2.40;;
76176;SDS011;64938;47.696;8.066;2023-07-20T02:18:57;5.63;;;2.67;;
76176;SDS011;64938;47.696;8.066;2023-07-20T02:21:23;2.73;;;2.53;;
76176;SDS011;64938;47.696;8.066;2023-07-20T02:23:49;3.47;;;3.17;;
76176;SDS011;64938;47.696;8.066;2023-07-20T02:26:14;3.90;;;2.80;;
76176;SDS011;64938;47.696;8.066;2023-07-20T02:28:40;2.70;;;2.47;;
76176;SDS011;64938;47.696;8.066;2023-07-20T02:31:06;3.73;;;2.57;;
76176;SDS011;64938;47.696;8.066;2023-07-20T02:33:32;3.23;;;2.40;;
76176;SDS011;64938;47.696;8.066;2023-07-20T02:35:57;2.80;;;2.47;;
76176;SDS011;64938;47.696;8.066;2023-07-20T02:38:23;4.03;;;3.17;;
76176;SDS011;64938;47.696;8.066;2023-07-20T02:40:49;3.23;;;3.00;;
76176;SDS011;64938;47.696;8.066;2023-07-20T02:43:16;3.23;;;2.93;;
76176;SDS011;64938;47.696;8.066;2023-07-20T02:45:41;7.57;;;3.07;;
76176;SDS011;64938;47.696;8.066;2023-07-20T02:48:08;5.07;;;3.30;;
76176;SDS011;64938;47.696;8.066;2023-07-20T02:50:33;4.37;;;3.03;;
76176;SDS011;64938;47.696;8.066;2023-07-20T02:53:00;3.40;;;2.93;;
76176;SDS011;64938;47.696;8.066;2023-07-20T02:55:26;3.80;;;2.87;;
76176;SDS011;64938;47.696;8.066;2023-07-20T02:57:52;10.07;;;3.37;;
76176;SDS011;64938;47.696;8.066;2023-07-20T03:00:17;3.23;;;2.93;;
76176;SDS011;64938;47.696;8.066;2023-07-20T03:02:44;3.67;;;3.30;;
76176;SDS011;64938;47.696;8.066;2023-07-20T03:05:14;3.37;;;2.77;;
76176;SDS011;64938;47.696;8.066;2023-07-20T03:07:40;4.20;;;3.13;;
76176;SDS011;64938;47.696;8.066;2023-07-20T03:10:08;3.43;;;3.13;;
76176;SDS011;64938;47.696;8.066;2023-07-20T03:12:36;3.57;;;3.00;;
76176;SDS011;64938;47.696;8.066;2023-07-20T03:15:02;3.30;;;3.00;;
76176;SDS011;64938;47.696;8.066;2023-07-20T03:17:33;3.50;;;3.20;;
76176;SDS011;64938;47.696;8.066;2023-07-20T03:19:59;4.83;;;3.13;;
76176;SDS011;64938;47.696;8.066;2023-07-20T03:22:26;3.40;;;3.10;;
76176;SDS011;64938;47.696;8.066;2023-07-20T03:25:07;3.90;;;3.50;;
76176;SDS011;64938;47.696;8.066;2023-07-20T03:27:33;5.83;;;3.50;;
76176;SDS011;64938;47.696;8.066;2023-07-20T03:30:01;4.23;;;3.33;;
76176;SDS011;64938;47.696;8.066;2023-07-20T03:32:32;3.40;;;2.63;;
76176;SDS011;64938;47.696;8.066;2023-07-20T03:34:58;4.20;;;3.20;;
76176;SDS011;64938;47.696;8.066;2023-07-20T03:37:26;4.20;;;3.53;;
76176;SDS011;64938;47.696;8.066;2023-07-20T03:39:52;5.93;;;3.53;;
76176;SDS011;64938;47.696;8.066;2023-07-20T03:42:20;4.27;;;3.40;;
76176;SDS011;64938;47.696;8.066;2023-07-20T03:50:44;5.23;;;3.00;;
76176;SDS011;64938;47.696;8.066;2023-07-20T03:53:10;3.67;;;3.37;;
76176;SDS011;64938;47.696;8.066;2023-07-20T03:55:36;4.80;;;3.20;;
76176;SDS011;64938;47.696;8.066;2023-07-20T03:58:12;3.90;;;3.47;;
76176;SDS011;64938;47.696;8.066;2023-07-20T04:00:38;5.03;;;3.70;;
76176;SDS011;64938;47.696;8.066;2023-07-20T04:03:05;4.10;;;3.70;;
76176;SDS011;64938;47.696;8.066;2023-07-20T04:05:30;5.13;;;3.30;;
76176;SDS011;64938;47.696;8.066;2023-07-20T04:07:56;3.70;;;3.37;;
76176;SDS011;64938;47.696;8.066;2023-07-20T04:10:23;4.30;;;3.10;;
76176;SDS011;64938;47.696;8.066;2023-07-20T04:12:48;4.70;;;3.93;;
76176;SDS011;64938;47.696;8.066;2023-07-20T04:15:14;4.70;;;3.07;;
76176;SDS011;64938;47.696;8.066;2023-07-20T04:17:45;3.63;;;3.30;;
76176;SDS011;64938;47.696;8.066;2023-07-20T04:20:11;4.00;;;2.90;;
76176;SDS011;64938;47.696;8.066;2023-07-20T04:22:39;4.50;;;3.20;;
76176;SDS011;64938;47.696;8.066;2023-07-20T04:25:06;5.33;;;3.23;;
76176;SDS011;64938;47.696;8.066;2023-07-20T04:27:39;3.77;;;3.20;;
76176;SDS011;64938;47.696;8.066;2023-07-20T04:30:06;3.63;;;3.33;;
76176;SDS011;64938;47.696;8.066;2023-07-20T04:32:38;4.57;;;3.30;;
76176;SDS011;64938;47.696;8.066;2023-07-20T04:35:10;3.40;;;3.07;;
76176;SDS011;64938;47.696;8.066;2023-07-20T04:37:37;3.43;;;3.13;;
76176;SDS011;64938;47.696;8.066;2023-07-20T04:40:03;3.30;;;2.87;;
76176;SDS011;64938;47.696;8.066;2023-07-20T04:42:33;3.60;;;3.10;;
76176;SDS011;64938;47.696;8.066;2023-07-20T04:44:59;4.50;;;3.50;;
76176;SDS011;64938;47.696;8.066;2023-07-20T04:47:24;3.00;;;2.60;;
76176;SDS011;64938;47.696;8.066;2023-07-20T04:49:54;8.60;;;3.13;;
76176;SDS011;64938;47.696;8.066;2023-07-20T04:52:20;3.80;;;2.70;;
76176;SDS011;64938;47.696;8.066;2023-07-20T04:54:45;4.10;;;2.87;;
76176;SDS011;64938;47.696;8.066;2023-07-20T04:57:13;4.80;;;2.87;;
76176;SDS011;64938;47.696;8.066;2023-07-20T04:59:38;2.97;;;2.67;;
76176;SDS011;64938;47.696;8.066;2023-07-20T05:02:04;3.80;;;2.87;;
76176;SDS011;64938;47.696;8.066;2023-07-20T05:04:31;3.90;;;2.77;;
76176;SDS011;64938;47.696;8.066;2023-07-20T05:06:58;3.33;;;2.90;;
76176;SDS011;64938;47.696;8.066;2023-07-20T05:09:24;2.80;;;2.47;;
76176;SDS011;64938;47.696;8.066;2023-07-20T05:11:50;4.87;;;2.50;;
76176;SDS011;64938;47.696;8.066;2023-07-20T05:14:15;6.90;;;2.80;;
76176;SDS011;64938;47.696;8.066;2023-07-20T05:16:41;3.43;;;2.80;;
76176;SDS011;64938;47.696;8.066;2023-07-20T05:19:06;3.70;;;2.60;;
76176;SDS011;64938;47.696;8.066;2023-07-20T05:21:32;5.47;;;2.40;;
76176;SDS011;64938;47.696;8.066;2023-07-20T05:23:57;3.05;;;2.40;;
76176;SDS011;64938;47.696;8.066;2023-07-20T05:26:23;2.80;;;2.17;;
76176;SDS011;64938;47.696;8.066;2023-07-20T05:28:51;4.63;;;2.50;;
76176;SDS011;64938;47.696;8.066;2023-07-20T05:31:19;3.13;;;2.45;;
76176;SDS011;64938;47.696;8.066;2023-07-20T05:33:47;2.47;;;2.28;;
76176;SDS011;64938;47.696;8.066;2023-07-20T05:36:13;3.70;;;2.30;;
76176;SDS011;64938;47.696;8.066;2023-07-20T05:38:38;5.57;;;2.67;;
76176;SDS011;64938;47.696;8.066;2023-07-20T05:41:04;3.15;;;2.08;;
76176;SDS011;64938;47.696;8.066;2023-07-20T05:43:29;2.05;;;1.95;;
76176;SDS011;64938;47.696;8.066;2023-07-20T05:45:56;4.28;;;2.55;;
76176;SDS011;64938;47.696;8.066;2023-07-20T05:48:24;5.00;;;2.22;;
76176;SDS011;64938;47.696;8.066;2023-07-20T05:50:52;5.18;;;2.00;;
76176;SDS011;64938;47.696;8.066;2023-07-20T05:53:21;2.88;;;2.40;;
76176;SDS011;64938;47.696;8.066;2023-07-20T05:55:52;5.82;;;2.70;;
76176;SDS011;64938;47.696;8.066;2023-07-20T05:58:19;5.43;;;2.10;;
76176;SDS011;64938;47.696;8.066;2023-07-20T06:00:47;3.95;;;2.50;;
76176;SDS011;64938;47.696;8.066;2023-07-20T06:03:13;4.18;;;2.33;;
76176;SDS011;64938;47.696;8.066;2023-07-20T06:05:38;3.55;;;2.50;;
76176;SDS011;64938;47.696;8.066;2023-07-20T06:08:05;2.40;;;2.20;;
76176;SDS011;64938;47.696;8.066;2023-07-20T06:10:32;2.35;;;1.92;;
76176;SDS011;64938;47.696;8.066;2023-07-20T06:12:58;2.78;;;2.22;;
76176;SDS011;64938;47.696;8.066;2023-07-20T06:15:24;3.00;;;2.78;;
76176;SDS011;64938;47.696;8.066;2023-07-20T06:17:54;3.08;;;2.17;;
76176;SDS011;64938;47.696;8.066;2023-07-20T06:20:21;5.00;;;2.22;;
76176;SDS011;64938;47.696;8.066;2023-07-20T06:22:47;2.90;;;2.20;;
76176;SDS011;64938;47.696;8.066;2023-07-20T06:25:13;2.55;;;2.20;;
76176;SDS011;64938;47.696;8.066;2023-07-20T06:27:38;2.22;;;2.00;;
76176;SDS011;64938;47.696;8.066;2023-07-20T06:30:04;4.70;;;2.20;;
76176;SDS011;64938;47.696;8.066;2023-07-20T06:32:30;2.97;;;1.90;;
76176;SDS011;64938;47.696;8.066;2023-07-20T06:34:56;4.47;;;2.47;;
76176;SDS011;64938;47.696;8.066;2023-07-20T06:37:24;2.45;;;2.05;;
76176;SDS011;64938;47.696;8.066;2023-07-20T06:39:50;2.75;;;1.95;;
76176;SDS011;64938;47.696;8.066;2023-07-20T06:42:18;3.60;;;2.38;;
76176;SDS011;64938;47.696;8.066;2023-07-20T06:44:44;2.20;;;2.00;;
76176;SDS011;64938;47.696;8.066;2023-07-20T06:47:10;2.42;;;1.65;;
76176;SDS011;64938;47.696;8.066;2023-07-20T06:49:36;2.53;;;1.90;;
76176;SDS011;64938;47.696;8.066;2023-07-20T06:52:03;2.55;;;2.00;;
76176;SDS011;64938;47.696;8.066;2023-07-20T06:54:30;2.38;;;2.20;;
76176;SDS011;64938;47.696;8.066;2023-07-20T06:56:58;2.85;;;2.33;;
76176;SDS011;64938;47.696;8.066;2023-07-20T06:59:27;2.90;;;1.85;;
76176;SDS011;64938;47.696;8.066;2023-07-20T07:01:53;5.68;;;1.85;;
76176;SDS011;64938;47.696;8.066;2023-07-20T07:04:22;2.28;;;2.05;;
76176;SDS011;64938;47.696;8.066;2023-07-20T07:06:48;2.90;;;1.77;;
76176;SDS011;64938;47.696;8.066;2023-07-20T07:09:13;2.00;;;1.75;;
76176;SDS011;64938;47.696;8.066;2023-07-20T07:11:41;2.17;;;1.98;;
76176;SDS011;64938;47.696;8.066;2023-07-20T07:14:08;2.40;;;2.20;;
76176;SDS011;64938;47.696;8.066;2023-07-20T07:16:37;3.20;;;2.60;;
76176;SDS011;64938;47.696;8.066;2023-07-20T07:19:03;3.92;;;1.83;;
76176;SDS011;64938;47.696;8.066;2023-07-20T07:22:28;5.00;;;2.17;;
76176;SDS011;64938;47.696;8.066;2023-07-20T07:24:54;2.30;;;1.80;;
76176;SDS011;64938;47.696;8.066;2023-07-20T07:27:20;3.40;;;1.97;;
76176;SDS011;64938;47.696;8.066;2023-07-20T07:29:47;3.63;;;2.20;;
76176;SDS011;64938;47.696;8.066;2023-07-20T07:33:10;2.70;;;2.30;;
76176;SDS011;64938;47.696;8.066;2023-07-20T07:35:40;4.57;;;2.70;;
76176;SDS011;64938;47.696;8.066;2023-07-20T07:38:07;2.80;;;2.40;;
76176;SDS011;64938;47.696;8.066;2023-07-20T07:40:33;3.58;;;2.30;;
76176;SDS011;64938;47.696;8.066;2023-07-20T07:43:00;3.25;;;2.55;;
76176;SDS011;64938;47.696;8.066;2023-07-20T07:45:26;3.63;;;2.45;;
76176;SDS011;64938;47.696;8.066;2023-07-20T07:47:54;2.70;;;2.50;;
76176;SDS011;64938;47.696;8.066;2023-07-20T07:50:20;2.92;;;2.08;;
76176;SDS011;64938;47.696;8.066;2023-07-20T07:52:45;2.58;;;2.10;;
76176;SDS011;64938;47.696;8.066;2023-07-20T07:55:11;3.80;;;2.47;;
76176;SDS011;64938;47.696;8.066;2023-07-20T07:57:38;3.00;;;2.70;;
76176;SDS011;64938;47.696;8.066;2023-07-20T08:00:04;2.40;;;2.17;;
76176;SDS011;64938;47.696;8.066;2023-07-20T08:02:35;2.87;;;2.50;;
76176;SDS011;64938;47.696;8.066;2023-07-20T08:05:01;6.03;;;3.17;;
76176;SDS011;64938;47.696;8.066;2023-07-20T08:07:29;4.75;;;2.75;;
76176;SDS011;64938;47.696;8.066;2023-07-20T08:09:57;3.00;;;2.03;;
76176;SDS011;64938;47.696;8.066;2023-07-20T08:12:22;2.33;;;2.08;;
76176;SDS011;64938;47.696;8.066;2023-07-20T08:14:51;1.80;;;1.70;;
76176;SDS011;64938;47.696;8.066;2023-07-20T08:17:19;2.88;;;2.13;;
76176;SDS011;64938;47.696;8.066;2023-07-20T08:19:45;4.30;;;1.80;;
76176;SDS011;64938;47.696;8.066;2023-07-20T08:22:11;2.17;;;1.80;;
76176;SDS011;64938;47.696;8.066;2023-07-20T08:24:40;3.83;;;1.95;;
76176;SDS011;64938;47.696;8.066;2023-07-20T08:27:12;2.35;;;2.15;;
76176;SDS011;64938;47.696;8.066;2023-07-20T08:29:37;3.95;;;2.13;;
76176;SDS011;64938;47.696;8.066;2023-07-20T08:32:06;6.05;;;2.05;;
76176;SDS011;64938;47.696;8.066;2023-07-20T08:34:32;2.10;;;1.90;;
76176;SDS011;64938;47.696;8.066;2023-07-20T08:36:58;2.95;;;2.03;;
76176;SDS011;64938;47.696;8.066;2023-07-20T08:39:24;4.07;;;1.80;;
76176;SDS011;64938;47.696;8.066;2023-07-20T08:41:53;2.58;;;2.38;;
76176;SDS011;64938;47.696;8.066;2023-07-20T08:44:20;2.38;;;1.90;;
76176;SDS011;64938;47.696;8.066;2023-07-20T08:46:46;2.55;;;1.95;;
76176;SDS011;64938;47.696;8.066;2023-07-20T08:49:13;3.45;;;2.47;;
76176;SDS011;64938;47.696;8.066;2023-07-20T08:51:39;2.88;;;2.47;;
76176;SDS011;64938;47.696;8.066;2023-07-20T08:54:08;7.47;;;2.00;;
76176;SDS011;64938;47.696;8.066;2023-07-20T08:56:35;3.55;;;2.22;;
76176;SDS011;64938;47.696;8.066;2023-07-20T08:59:01;3.47;;;2.25;;
76176;SDS011;64938;47.696;8.066;2023-07-20T09:01:28;3.00;;;2.08;;
76176;SDS011;64938;47.696;8.066;2023-07-20T09:03:55;2.47;;;2.28;;
76176;SDS011;64938;47.696;8.066;2023-07-20T09:06:23;2.67;;;2.03;;
76176;SDS011;64938;47.696;8.066;2023-07-20T09:08:50;2.30;;;2.03;;
76176;SDS011;64938;47.696;8.066;2023-07-20T09:11:17;3.33;;;1.92;;
76176;SDS011;64938;47.696;8.066;2023-07-20T09:13:43;2.25;;;1.85;;
76176;SDS011;64938;47.696;8.066;2023-07-20T09:16:10;1.90;;;1.80;;
76176;SDS011;64938;47.696;8.066;2023-07-20T09:18:38;2.00;;;1.80;;
76176;SDS011;64938;47.696;8.066;2023-07-20T09:21:05;2.95;;;2.13;;
76176;SDS011;64938;47.696;8.066;2023-07-20T09:23:34;2.47;;;1.75;;
76176;SDS011;64938;47.696;8.066;2023-07-20T09:26:10;3.72;;;1.73;;
76176;SDS011;64938;47.696;8.066;2023-07-20T09:28:52;4.03;;;2.05;;
76176;SDS011;64938;47.696;8.066;2023-07-20T09:31:22;2.13;;;2.03;;
76176;SDS011;64938;47.696;8.066;2023-07-20T09:33:48;2.45;;;2.25;;
76176;SDS011;64938;47.696;8.066;2023-07-20T09:36:19;2.10;;;1.90;;
76176;SDS011;64938;47.696;8.066;2023-07-20T09:38:44;2.90;;;2.00;;
76176;SDS011;64938;47.696;8.066;2023-07-20T09:41:14;2.33;;;2.13;;
76176;SDS011;64938;47.696;8.066;2023-07-20T09:43:40;10.27;;;3.03;;
76176;SDS011;64938;47.696;8.066;2023-07-20T09:46:07;3.97;;;2.40;;
76176;SDS011;64938;47.696;8.066;2023-07-20T09:48:36;3.05;;;2.40;;
76176;SDS011;64938;47.696;8.066;2023-07-20T09:51:02;3.05;;;2.10;;
76176;SDS011;64938;47.696;8.066;2023-07-20T09:53:30;2.58;;;2.38;;
76176;SDS011;64938;47.696;8.066;2023-07-20T09:55:58;2.63;;;2.42;;
76176;SDS011;64938;47.696;8.066;2023-07-20T09:58:24;2.50;;;2.00;;
76176;SDS011;64938;47.696;8.066;2023-07-20T10:00:56;2.50;;;2.13;;
76176;SDS011;64938;47.696;8.066;2023-07-20T10:03:23;2.22;;;2.00;;
76176;SDS011;64938;47.696;8.066;2023-07-20T10:08:39;3.50;;;1.90;;
76176;SDS011;64938;47.696;8.066;2023-07-20T10:11:11;4.63;;;2.30;;
76176;SDS011;64938;47.696;8.066;2023-07-20T10:13:41;2.63;;;2.23;;
76176;SDS011;64938;47.696;8.066;2023-07-20T10:16:13;2.03;;;1.90;;
76176;SDS011;64938;47.696;8.066;2023-07-20T10:18:46;2.30;;;2.10;;
76176;SDS011;64938;47.696;8.066;2023-07-20T10:21:13;2.10;;;1.90;;
76176;SDS011;64938;47.696;8.066;2023-07-20T10:23:45;2.90;;;2.20;;
76176;SDS011;64938;47.696;8.066;2023-07-20T10:26:11;3.13;;;1.70;;
76176;SDS011;64938;47.696;8.066;2023-07-20T10:28:39;2.90;;;2.03;;
76176;SDS011;64938;47.696;8.066;2023-07-20T10:31:07;2.73;;;2.43;;
76176;SDS011;64938;47.696;8.066;2023-07-20T10:33:41;3.30;;;2.07;;
76176;SDS011;64938;47.696;8.066;2023-07-20T10:36:07;3.90;;;2.03;;
76176;SDS011;64938;47.696;8.066;2023-07-20T10:38:42;2.93;;;2.30;;
76176;SDS011;64938;47.696;8.066;2023-07-20T10:43:51;2.90;;;2.03;;
76176;SDS011;64938;47.696;8.066;2023-07-20T10:46:35;2.20;;;2.00;;
76176;SDS011;64938;47.696;8.066;2023-07-20T10:49:09;2.30;;;2.10;;
76176;SDS011;64938;47.696;8.066;2023-07-20T10:54:09;2.60;;;1.77;;
76176;SDS011;64938;47.696;8.066;2023-07-20T10:57:21;2.07;;;1.80;;
76176;SDS011;64938;47.696;8.066;2023-07-20T11:00:09;4.40;;;1.80;;
76176;SDS011;64938;47.696;8.066;2023-07-20T11:02:48;3.08;;;1.95;;
76176;SDS011;64938;47.696;8.066;2023-07-20T11:05:33;1.67;;;1.57;;
76176;SDS011;64938;47.696;8.066;2023-07-20T11:08:03;1.95;;;1.83;;
76176;SDS011;64938;47.696;8.066;2023-07-20T11:14:06;2.03;;;1.77;;
76176;SDS011;64938;47.696;8.066;2023-07-20T11:19:19;2.75;;;1.77;;
76176;SDS011;64938;47.696;8.066;2023-07-20T11:21:50;2.77;;;2.00;;
76176;SDS011;64938;47.696;8.066;2023-07-20T11:24:22;2.83;;;1.80;;
76176;SDS011;64938;47.696;8.066;2023-07-20T11:26:49;1.73;;;1.63;;
76176;SDS011;64938;47.696;8.066;2023-07-20T11:29:17;1.73;;;1.63;;
76176;SDS011;64938;47.696;8.066;2023-07-20T11:31:47;1.85;;;1.70;;
76176;SDS011;64938;47.696;8.066;2023-07-20T11:34:16;3.05;;;1.90;;
76176;SDS011;64938;47.696;8.066;2023-07-20T11:36:45;2.17;;;1.90;;
76176;SDS011;64938;47.696;8.066;2023-07-20T11:39:18;2.10;;;2.00;;
76176;SDS011;64938;47.696;8.066;2023-07-20T11:41:56;1.87;;;1.70;;
76176;SDS011;64938;47.696;8.066;2023-07-20T11:44:31;2.53;;;2.20;;
76176;SDS011;64938;47.696;8.066;2023-07-20T11:49:39;2.63;;;2.08;;
76176;SDS011;64938;47.696;8.066;2023-07-20T11:52:06;3.08;;;2.25;;
76176;SDS011;64938;47.696;8.066;2023-07-20T11:54:40;2.78;;;2.30;;
76176;SDS011;64938;47.696;8.066;2023-07-20T11:57:18;2.35;;;2.10;;
76176;SDS011;64938;47.696;8.066;2023-07-20T12:02:42;5.00;;;2.58;;
76176;SDS011;64938;47.696;8.066;2023-07-20T12:05:12;2.20;;;2.08;;
76176;SDS011;64938;47.696;8.066;2023-07-20T12:07:38;2.40;;;2.15;;
76176;SDS011;64938;47.696;8.066;2023-07-20T12:12:34;3.95;;;2.08;;
76176;SDS011;64938;47.696;8.066;2023-07-20T12:15:16;2.17;;;2.00;;
76176;SDS011;64938;47.696;8.066;2023-07-20T12:17:48;2.13;;;2.03;;
76176;SDS011;64938;47.696;8.066;2023-07-20T12:20:32;2.85;;;2.42;;
76176;SDS011;64938;47.696;8.066;2023-07-20T12:25:37;2.57;;;2.10;;
76176;SDS011;64938;47.696;8.066;2023-07-20T12:28:06;2.90;;;1.87;;
76176;SDS011;64938;47.696;8.066;2023-07-20T12:30:46;2.42;;;2.08;;
76176;SDS011;64938;47.696;8.066;2023-07-20T12:33:21;4.25;;;2.28;;
76176;SDS011;64938;47.696;8.066;2023-07-20T12:35:49;3.00;;;2.40;;
76176;SDS011;64938;47.696;8.066;2023-07-20T12:38:16;3.05;;;2.08;;
76176;SDS011;64938;47.696;8.066;2023-07-20T12:40:42;2.63;;;2.42;;
76176;SDS011;64938;47.696;8.066;2023-07-20T12:43:09;3.63;;;2.33;;
76176;SDS011;64938;47.696;8.066;2023-07-20T12:46:32;3.33;;;2.40;;
76176;SDS011;64938;47.696;8.066;2023-07-20T12:49:01;4.33;;;2.30;;
76176;SDS011;64938;47.696;8.066;2023-07-20T12:51:27;2.33;;;2.13;;
76176;SDS011;64938;47.696;8.066;2023-07-20T12:53:53;2.30;;;2.10;;
76176;SDS011;64938;47.696;8.066;2023-07-20T12:56:18;2.47;;;2.27;;
76176;SDS011;64938;47.696;8.066;2023-07-20T12:58:44;2.27;;;2.07;;
76176;SDS011;64938;47.696;8.066;2023-07-20T13:01:10;2.43;;;2.23;;
76176;SDS011;64938;47.696;8.066;2023-07-20T13:03:35;2.30;;;2.10;;
76176;SDS011;64938;47.696;8.066;2023-07-20T13:06:01;2.90;;;2.10;;
76176;SDS011;64938;47.696;8.066;2023-07-20T13:08:26;2.50;;;2.27;;
76176;SDS011;64938;47.696;8.066;2023-07-20T13:10:52;2.50;;;2.30;;
76176;SDS011;64938;47.696;8.066;2023-07-20T13:13:19;3.00;;;2.43;;
76176;SDS011;64938;47.696;8.066;2023-07-20T13:15:47;3.30;;;2.17;;
76176;SDS011;64938;47.696;8.066;2023-07-20T13:18:13;6.30;;;2.33;;
76176;SDS011;64938;47.696;8.066;2023-07-20T13:20:39;2.88;;;2.67;;
76176;SDS011;64938;47.696;8.066;2023-07-20T13:23:05;3.88;;;2.20;;
76176;SDS011;64938;47.696;8.066;2023-07-20T13:25:31;2.75;;;2.08;;
76176;SDS011;64938;47.696;8.066;2023-07-20T13:27:57;4.70;;;2.27;;
76176;SDS011;64938;47.696;8.066;2023-07-20T13:30:25;2.43;;;2.20;;
76176;SDS011;64938;47.696;8.066;2023-07-20T13:32:56;2.50;;;2.30;;
76176;SDS011;64938;47.696;8.066;2023-07-20T13:35:22;3.07;;;1.93;;
76176;SDS011;64938;47.696;8.066;2023-07-20T13:40:41;2.20;;;2.00;;
76176;SDS011;64938;47.696;8.066;2023-07-20T13:43:08;2.37;;;2.17;;
76176;SDS011;64938;47.696;8.066;2023-07-20T13:45:35;2.50;;;2.30;;
76176;SDS011;64938;47.696;8.066;2023-07-20T13:48:01;2.50;;;2.10;;
76176;SDS011;64938;47.696;8.066;2023-07-20T13:50:26;3.13;;;2.70;;
76176;SDS011;64938;47.696;8.066;2023-07-20T13:52:53;2.60;;;2.40;;
76176;SDS011;64938;47.696;8.066;2023-07-20T13:55:19;2.30;;;2.10;;
76176;SDS011;64938;47.696;8.066;2023-07-20T13:57:49;3.17;;;2.10;;
76176;SDS011;64938;47.696;8.066;2023-07-20T14:00:16;3.90;;;2.40;;
76176;SDS011;64938;47.696;8.066;2023-07-20T14:02:42;2.10;;;1.90;;
76176;SDS011;64938;47.696;8.066;2023-07-20T14:05:08;3.33;;;2.03;;
76176;SDS011;64938;47.696;8.066;2023-07-20T14:07:35;2.20;;;1.90;;
76176;SDS011;64938;47.696;8.066;2023-07-20T14:10:01;2.53;;;1.90;;
76176;SDS011;64938;47.696;8.066;2023-07-20T14:12:28;2.40;;;2.20;;
76176;SDS011;64938;47.696;8.066;2023-07-20T14:14:56;2.47;;;2.27;;
76176;SDS011;64938;47.696;8.066;2023-07-20T14:17:22;2.20;;;2.10;;
76176;SDS011;64938;47.696;8.066;2023-07-20T14:19:48;2.95;;;2.10;;
76176;SDS011;64938;47.696;8.066;2023-07-20T14:22:13;2.47;;;2.20;;
76176;SDS011;64938;47.696;8.066;2023-07-20T14:24:43;2.27;;;2.07;;
76176;SDS011;64938;47.696;8.066;2023-07-20T14:27:08;3.10;;;2.17;;
76176;SDS011;64938;47.696;8.066;2023-07-20T14:29:34;3.50;;;2.17;;
76176;SDS011;64938;47.696;8.066;2023-07-20T14:32:02;2.37;;;2.17;;
76176;SDS011;64938;47.696;8.066;2023-07-20T14:34:31;2.30;;;2.10;;
76176;SDS011;64938;47.696;8.066;2023-07-20T14:36:58;2.70;;;1.90;;
76176;SDS011;64938;47.696;8.066;2023-07-20T14:39:29;2.30;;;2.00;;
76176;SDS011;64938;47.696;8.066;2023-07-20T14:41:57;2.70;;;2.00;;
76176;SDS011;64938;47.696;8.066;2023-07-20T14:44:23;2.03;;;1.87;;
76176;SDS011;64938;47.696;8.066;2023-07-20T14:46:51;2.08;;;1.80;;
76176;SDS011;64938;47.696;8.066;2023-07-20T14:49:17;2.30;;;2.10;;
76176;SDS011;64938;47.696;8.066;2023-07-20T14:51:43;2.40;;;2.20;;
76176;SDS011;64938;47.696;8.066;2023-07-20T14:54:17;2.43;;;2.07;;
76176;SDS011;64938;47.696;8.066;2023-07-20T14:56:51;2.50;;;2.30;;
76176;SDS011;64938;47.696;8.066;2023-07-20T14:59:21;3.17;;;2.30;;
76176;SDS011;64938;47.696;8.066;2023-07-20T15:01:49;2.40;;;2.20;;
76176;SDS011;64938;47.696;8.066;2023-07-20T15:04:16;2.60;;;2.07;;
76176;SDS011;64938;47.696;8.066;2023-07-20T15:06:41;2.80;;;1.90;;
76176;SDS011;64938;47.696;8.066;2023-07-20T15:09:08;2.40;;;2.20;;
76176;SDS011;64938;47.696;8.066;2023-07-20T15:11:34;3.40;;;2.00;;
76176;SDS011;64938;47.696;8.066;2023-07-20T15:14:00;2.07;;;1.97;;
76176;SDS011;64938;47.696;8.066;2023-07-20T15:16:26;3.00;;;1.97;;
76176;SDS011;64938;47.696;8.066;2023-07-20T15:18:53;2.73;;;2.10;;
76176;SDS011;64938;47.696;8.066;2023-07-20T15:21:19;1.90;;;1.70;;
76176;SDS011;64938;47.696;8.066;2023-07-20T15:23:52;2.20;;;2.00;;
76176;SDS011;64938;47.696;8.066;2023-07-20T15:26:20;5.30;;;2.47;;
76176;SDS011;64938;47.696;8.066;2023-07-20T15:28:49;3.43;;;2.17;;
76176;SDS011;64938;47.696;8.066;2023-07-20T15:31:19;2.53;;;2.03;;
76176;SDS011;64938;47.696;8.066;2023-07-20T15:33:45;3.80;;;2.00;;
76176;SDS011;64938;47.696;8.066;2023-07-20T15:36:10;2.50;;;2.20;;